createdAt,value
2022-08-04T00:02:04.657Z,98549.97
2022-08-04T00:04:37.281Z,98548.66
2022-08-04T00:07:10.217Z,98553.00
2022-08-04T00:09:43.176Z,98549.47
2022-08-04T00:12:12.751Z,98548.66
2022-08-04T00:14:51.344Z,98545.94
2022-08-04T00:17:21.847Z,98547.81
2022-08-04T00:19:50.968Z,98543.25
2022-08-04T00:22:23.570Z,98539.72
2022-08-04T00:24:52.012Z,98541.00
2022-08-04T00:27:20.554Z,98540.16
2022-08-04T00:29:49.467Z,98538.31
2022-08-04T00:32:33.846Z,98543.69
2022-08-04T00:35:03.960Z,98542.03
2022-08-04T00:37:33.805Z,98543.91
2022-08-04T00:40:02.343Z,98547.44
2022-08-04T00:42:58.685Z,98551.78
2022-08-04T00:46:16.588Z,98544.56
2022-08-04T00:49:27.993Z,98545.56
2022-08-04T00:52:32.340Z,98552.00
2022-08-04T00:55:09.309Z,98546.59
2022-08-04T00:58:16.583Z,98542.03
2022-08-04T01:00:50.413Z,98542.03
2022-08-04T01:03:24.748Z,98551.78
2022-08-04T01:06:00.049Z,98548.09
2022-08-04T01:09:00.894Z,98551.16
2022-08-04T01:11:56.918Z,98547.59
2022-08-04T01:14:43.409Z,98550.31
2022-08-04T01:17:21.520Z,98544.91
2022-08-04T01:20:06.720Z,98543.91
2022-08-04T01:23:37.717Z,98541.59
2022-08-04T01:26:43.855Z,98548.19
2022-08-04T01:29:24.803Z,98545.28
2022-08-04T01:32:03.578Z,98548.81
2022-08-04T01:34:36.621Z,98538.03
2022-08-04T01:37:13.476Z,98540.72
2022-08-04T01:39:50.708Z,98537.19
2022-08-04T01:42:31.696Z,98536.38
2022-08-04T01:45:05.684Z,98537.41
2022-08-04T01:47:39.179Z,98531.19
2022-08-04T01:50:09.600Z,98527.81
2022-08-04T01:52:39.575Z,98538.41
2022-08-04T01:55:10.643Z,98541.09
2022-08-04T01:57:42.716Z,98539.44
2022-08-04T02:00:14.061Z,98541.09
2022-08-04T02:02:42.720Z,98544.84
2022-08-04T02:05:11.941Z,98537.78
2022-08-04T02:08:03.673Z,98530.53
2022-08-04T02:10:37.119Z,98534.06
2022-08-04T02:13:16.669Z,98527.00
2022-08-04T02:15:54.608Z,98525.28
2022-08-04T02:18:25.873Z,98525.28
2022-08-04T02:20:59.046Z,98524.84
2022-08-04T02:23:33.193Z,98524.03
2022-08-04T02:26:03.698Z,98522.31
2022-08-04T02:28:38.834Z,98516.94
2022-08-04T02:31:16.743Z,98517.75
2022-08-04T02:33:46.624Z,98512.38
2022-08-04T02:36:20.031Z,98509.88
2022-08-04T02:39:00.381Z,98505.50
2022-08-04T02:41:31.123Z,98508.22
2022-08-04T02:44:01.427Z,98509.88
2022-08-04T02:46:32.276Z,98509.88
2022-08-04T02:49:02.733Z,98508.22
2022-08-04T02:51:32.172Z,98506.53
2022-08-04T02:54:01.486Z,98503.00
2022-08-04T02:56:31.946Z,98504.88
2022-08-04T02:59:01.948Z,98509.44
2022-08-04T03:01:32.367Z,98509.44
2022-08-04T03:04:25.002Z,98511.25
2022-08-04T03:07:30.581Z,98517.53
2022-08-04T03:10:44.295Z,98518.53
2022-08-04T03:13:55.013Z,98523.91
2022-08-04T03:16:49.043Z,98519.34
2022-08-04T03:19:57.728Z,98515.81
2022-08-04T03:23:12.114Z,98522.91
2022-08-04T03:26:20.893Z,98515.00
2022-08-04T03:29:36.665Z,98515.81
2022-08-04T03:32:47.959Z,98525.78
2022-08-04T03:35:38.627Z,98525.78
2022-08-04T03:38:24.665Z,98533.03
2022-08-04T03:41:07.774Z,98524.28
2022-08-04T03:44:06.211Z,98530.53
2022-08-04T03:47:17.273Z,98534.06
2022-08-04T03:50:30.842Z,98535.91
2022-08-04T03:53:17.737Z,98536.75
2022-08-04T03:56:07.562Z,98533.22
2022-08-04T03:59:24.590Z,98514.72
2022-08-04T04:02:35.878Z,98525.50
2022-08-04T04:05:41.715Z,98525.34
2022-08-04T04:08:59.793Z,98524.28
2022-08-04T04:12:17.594Z,98528.88
2022-08-04T04:14:57.128Z,98533.22
2022-08-04T04:17:52.754Z,98530.53
2022-08-04T04:21:01.813Z,98522.44
2022-08-04T04:23:44.429Z,98522.44
2022-08-04T04:26:50.586Z,98526.81
2022-08-04T04:30:01.884Z,98526.81
2022-08-04T04:32:40.389Z,98528.47
2022-08-04T04:35:24.262Z,98522.06
2022-08-04T04:38:26.309Z,98528.47
2022-08-04T04:41:05.664Z,98526.81
2022-08-04T04:44:04.790Z,98535.75
2022-08-04T04:46:39.908Z,98539.28
2022-08-04T04:49:16.257Z,98534.06
2022-08-04T04:51:49.491Z,98538.44
2022-08-04T04:54:29.575Z,98533.69
2022-08-04T04:57:08.809Z,98533.88
2022-08-04T04:59:40.409Z,98538.22
2022-08-04T05:02:42.679Z,98539.94
2022-08-04T05:05:23.711Z,98537.22
2022-08-04T05:08:44.333Z,98539.72
2022-08-04T05:14:31.636Z,98538.50
2022-08-04T05:14:55.694Z,98540.22
2022-08-04T05:17:27.606Z,98541.88
2022-08-04T05:20:02.227Z,98542.03
2022-08-04T05:22:34.097Z,98553.31
2022-08-04T05:25:07.131Z,98554.97
2022-08-04T05:27:41.281Z,98553.13
2022-08-04T05:30:10.723Z,98546.06
2022-08-04T05:32:45.816Z,98544.84
2022-08-04T05:35:56.307Z,98543.81
2022-08-04T05:38:06.642Z,98542.81
2022-08-04T05:40:35.156Z,98547.16
2022-08-04T05:43:04.933Z,98549.69
2022-08-04T05:45:38.892Z,98550.69
2022-08-04T05:48:09.322Z,98551.72
2022-08-04T05:50:37.865Z,98548.66
2022-08-04T05:53:06.377Z,98549.09
2022-08-04T05:55:58.967Z,98548.09
2022-08-04T05:58:24.814Z,98550.41
2022-08-04T06:00:53.358Z,98553.28
2022-08-04T06:03:21.917Z,98559.16
2022-08-04T06:05:50.371Z,98552.72
2022-08-04T06:08:19.575Z,98551.91
2022-08-04T06:10:48.183Z,98557.47
2022-08-04T06:13:48.456Z,98554.59
2022-08-04T06:16:28.642Z,98560.16
2022-08-04T06:19:59.046Z,98555.59
2022-08-04T06:21:49.433Z,98561.66
2022-08-04T06:24:20.843Z,98555.88
2022-08-04T06:26:49.634Z,98556.72
2022-08-04T06:29:24.991Z,98558.66
2022-08-04T06:32:27.438Z,98568.81
2022-08-04T06:34:54.985Z,98560.06
2022-08-04T06:37:42.523Z,98562.75
2022-08-04T06:40:30.439Z,98561.53
2022-08-04T06:43:02.001Z,98563.22
2022-08-04T06:45:30.675Z,98570.13
2022-08-04T06:48:00.520Z,98569.09
2022-08-04T06:51:31.390Z,98561.38
2022-08-04T06:53:17.853Z,98555.97
2022-08-04T06:55:48.364Z,98565.56
2022-08-04T06:58:16.880Z,98565.38
2022-08-04T07:00:47.154Z,98566.69
2022-08-04T07:03:17.870Z,98566.47
2022-08-04T07:05:48.139Z,98560.72
2022-08-04T07:08:16.837Z,98560.72
2022-08-04T07:10:45.297Z,98556.59
2022-08-04T07:13:13.758Z,98549.16
2022-08-04T07:15:43.685Z,98553.72
2022-08-04T07:18:12.119Z,98548.94
2022-08-04T07:20:43.536Z,98552.13
2022-08-04T07:23:13.850Z,98549.59
2022-08-04T07:25:58.842Z,98542.81
2022-08-04T07:28:31.570Z,98553.22
2022-08-04T07:31:00.560Z,98558.78
2022-08-04T07:33:29.037Z,98550.13
2022-08-04T07:36:09.224Z,98555.34
2022-08-04T07:38:48.326Z,98557.41
2022-08-04T07:41:38.515Z,98552.44
2022-08-04T07:44:07.376Z,98549.75
2022-08-04T07:46:35.932Z,98553.75
2022-08-04T07:49:04.553Z,98551.88
2022-08-04T07:51:35.507Z,98549.81
2022-08-04T07:54:05.351Z,98549.69
2022-08-04T07:56:35.123Z,98545.25
2022-08-04T07:59:03.869Z,98547.38
2022-08-04T08:01:32.357Z,98542.34
2022-08-04T08:04:00.994Z,98549.09
2022-08-04T08:06:35.531Z,98547.44
2022-08-04T08:09:13.510Z,98547.44
2022-08-04T08:12:38.720Z,98551.47
2022-08-04T08:14:31.743Z,98546.91
2022-08-04T08:17:01.706Z,98545.25
2022-08-04T08:19:30.463Z,98536.34
2022-08-04T08:22:00.525Z,98551.72
2022-08-04T08:24:31.864Z,98550.25
2022-08-04T08:27:01.157Z,98539.06
2022-08-04T08:29:29.863Z,98543.09
2022-08-04T08:32:02.743Z,98551.63
2022-08-04T08:34:35.585Z,98545.56
2022-08-04T08:37:08.698Z,98538.56
2022-08-04T08:39:42.394Z,98542.94
2022-08-04T08:42:52.162Z,98546.66
2022-08-04T08:46:48.554Z,98548.03
2022-08-04T08:50:01.638Z,98550.00
2022-08-04T08:53:01.013Z,98548.63
2022-08-04T08:55:42.773Z,98547.50
2022-08-04T08:58:39.811Z,98555.84
2022-08-04T09:01:14.202Z,98550.75
2022-08-04T09:04:32.366Z,98546.50
2022-08-04T09:07:11.987Z,98550.25
2022-08-04T09:10:08.300Z,98547.81
2022-08-04T09:12:46.081Z,98550.81
2022-08-04T09:15:16.871Z,98556.06
2022-08-04T09:17:49.946Z,98551.69
2022-08-04T09:20:26.727Z,98562.19
2022-08-04T09:23:07.337Z,98555.88
2022-08-04T09:25:40.475Z,98558.47
2022-08-04T09:28:51.639Z,98561.25
2022-08-04T09:31:15.137Z,98550.72
2022-08-04T09:33:49.329Z,98544.06
2022-08-04T09:36:33.229Z,98553.56
2022-08-04T09:39:11.307Z,98556.16
2022-08-04T09:41:52.550Z,98546.50
2022-08-04T09:44:49.438Z,98552.56
2022-08-04T09:47:25.669Z,98544.03
2022-08-04T09:50:17.847Z,98539.03
2022-08-04T09:52:50.786Z,98541.50
2022-08-04T09:55:27.837Z,98537.47
2022-08-04T09:58:02.869Z,98527.22
2022-08-04T10:00:40.857Z,98529.47
2022-08-04T10:03:14.774Z,98528.19
2022-08-04T10:05:57.174Z,98528.09
2022-08-04T10:08:40.328Z,98528.56
2022-08-04T10:11:13.375Z,98528.94
2022-08-04T10:13:49.976Z,98524.53
2022-08-04T10:16:39.377Z,98536.94
2022-08-04T10:19:16.910Z,98535.03
2022-08-04T10:21:59.607Z,98531.16
2022-08-04T10:24:57.423Z,98531.75
2022-08-04T10:27:31.271Z,98531.81
2022-08-04T10:30:10.328Z,98521.94
2022-08-04T10:32:45.430Z,98532.13
2022-08-04T10:35:15.936Z,98531.09
2022-08-04T10:37:59.363Z,98518.84
2022-08-04T10:40:45.204Z,98531.50
2022-08-04T10:43:22.820Z,98527.66
2022-08-04T10:45:57.813Z,98515.34
2022-08-04T10:48:37.775Z,98521.81
2022-08-04T10:51:16.820Z,98523.28
2022-08-04T10:53:45.802Z,98514.88
2022-08-04T10:56:19.104Z,98516.34
2022-08-04T10:58:56.114Z,98513.06
2022-08-04T11:02:01.691Z,98513.94
2022-08-04T11:04:27.118Z,98505.81
2022-08-04T11:06:56.793Z,98514.94
2022-08-04T11:09:25.323Z,98511.22
2022-08-04T11:12:01.778Z,98518.28
2022-08-04T11:14:36.254Z,98516.16
2022-08-04T11:17:07.833Z,98518.03
2022-08-04T11:19:46.254Z,98515.75
2022-08-04T11:22:24.072Z,98509.16
2022-08-04T11:24:57.067Z,98517.22
2022-08-04T11:27:30.619Z,98513.22
2022-08-04T11:30:05.003Z,98522.88
2022-08-04T11:32:38.889Z,98515.28
2022-08-04T11:35:11.295Z,98509.94
2022-08-04T11:37:46.876Z,98511.88
2022-08-04T11:40:22.115Z,98502.81
2022-08-04T11:42:55.069Z,98501.16
2022-08-04T11:45:32.179Z,98489.69
2022-08-04T11:48:02.552Z,98500.81
2022-08-04T11:50:38.645Z,98498.34
2022-08-04T11:53:07.596Z,98506.59
2022-08-04T11:56:07.684Z,98500.75
2022-08-04T11:58:24.735Z,98497.03
2022-08-04T12:00:59.606Z,98504.06
2022-08-04T12:03:37.587Z,98496.97
2022-08-04T12:06:18.966Z,98493.41
2022-08-04T12:09:03.750Z,98499.50
2022-08-04T12:11:56.210Z,98488.69
2022-08-04T12:14:32.000Z,98485.41
2022-08-04T12:17:02.318Z,98477.72
2022-08-04T12:19:54.732Z,98477.00
2022-08-04T12:22:31.562Z,98476.81
2022-08-04T12:25:04.138Z,98487.03
2022-08-04T12:27:37.600Z,98481.41
2022-08-04T12:30:58.873Z,98471.28
2022-08-04T12:33:00.613Z,98469.34
2022-08-04T12:35:35.153Z,98463.59
2022-08-04T12:38:07.461Z,98463.34
2022-08-04T12:40:40.562Z,98468.69
2022-08-04T12:43:12.896Z,98466.00
2022-08-04T12:45:48.666Z,98463.59
2022-08-04T12:48:21.127Z,98463.59
2022-08-04T12:50:50.207Z,98465.13
2022-08-04T12:53:32.177Z,98468.53
2022-08-04T12:56:02.367Z,98449.00
2022-08-04T12:58:42.697Z,98454.59
2022-08-04T13:02:07.411Z,98457.53
2022-08-04T13:04:06.082Z,98458.56
2022-08-04T13:06:36.226Z,98466.22
2022-08-04T13:09:09.628Z,98456.50
2022-08-04T13:11:52.679Z,98451.69
2022-08-04T13:14:28.310Z,98437.66
2022-08-04T13:17:00.396Z,98444.78
2022-08-04T13:19:31.475Z,98433.56
2022-08-04T13:22:09.731Z,98440.47
2022-08-04T13:24:56.735Z,98427.97
2022-08-04T13:27:27.909Z,98421.53
2022-08-04T13:30:23.186Z,98422.25
2022-08-04T13:32:56.528Z,98422.72
2022-08-04T13:35:55.884Z,98423.63
2022-08-04T13:38:15.306Z,98424.03
2022-08-04T13:40:45.564Z,98419.44
2022-08-04T13:44:15.695Z,98420.09
2022-08-04T13:46:28.136Z,98424.03
2022-08-04T13:51:57.305Z,98417.78
2022-08-04T13:54:30.461Z,98415.88
2022-08-04T13:57:01.724Z,98422.47
2022-08-04T13:59:30.179Z,98425.00
2022-08-04T14:02:01.924Z,98424.34
2022-08-04T14:04:31.572Z,98421.66
2022-08-04T14:07:04.556Z,98415.19
2022-08-04T14:09:36.006Z,98404.19
2022-08-04T14:12:38.320Z,98415.41
2022-08-04T14:14:59.104Z,98408.94
2022-08-04T14:17:29.880Z,98408.34
2022-08-04T14:20:00.464Z,98406.72
2022-08-04T14:22:36.889Z,98406.34
2022-08-04T14:25:15.607Z,98400.91
2022-08-04T14:27:48.148Z,98399.25
2022-08-04T14:30:27.974Z,98404.69
2022-08-04T14:34:02.085Z,98409.03
2022-08-04T14:35:58.475Z,98396.94
2022-08-04T14:38:26.949Z,98396.94
2022-08-04T14:40:55.364Z,98391.72
2022-08-04T14:43:25.370Z,98395.50
2022-08-04T14:45:55.468Z,98390.94
2022-08-04T14:48:25.406Z,98392.81
2022-08-04T14:50:53.847Z,98384.91
2022-08-04T14:53:26.363Z,98384.53
2022-08-04T14:55:57.179Z,98384.53
2022-08-04T14:58:36.400Z,98376.38
2022-08-04T15:01:10.146Z,98384.03
2022-08-04T15:03:49.957Z,98387.59
2022-08-04T15:06:23.728Z,98385.50
2022-08-04T15:08:53.370Z,98374.69
2022-08-04T15:11:23.281Z,98379.03
2022-08-04T15:13:54.086Z,98375.31
2022-08-04T15:16:22.774Z,98382.16
2022-08-04T15:18:54.466Z,98383.41
2022-08-04T15:21:23.616Z,98386.34
2022-08-04T15:23:52.029Z,98386.16
2022-08-04T15:26:26.812Z,98385.53
2022-08-04T15:28:59.853Z,98374.91
2022-08-04T15:32:03.799Z,98376.34
2022-08-04T15:34:16.999Z,98376.56
2022-08-04T15:36:56.881Z,98378.47
2022-08-04T15:39:37.053Z,98378.88
2022-08-04T15:42:20.883Z,98375.13
2022-08-04T15:45:20.702Z,98382.00
2022-08-04T15:48:28.561Z,98371.41
2022-08-04T15:51:15.312Z,98373.47
2022-08-04T15:54:32.998Z,98364.91
2022-08-04T15:57:03.441Z,98371.78
2022-08-04T16:00:01.360Z,98362.41
2022-08-04T16:02:52.444Z,98363.25
2022-08-04T16:05:42.394Z,98376.56
2022-08-04T16:08:16.580Z,98365.09
2022-08-04T16:10:50.316Z,98368.88
2022-08-04T16:13:20.794Z,98363.47
2022-08-04T16:15:51.878Z,98369.91
2022-08-04T16:18:43.768Z,98375.94
2022-08-04T16:21:21.879Z,98361.38
2022-08-04T16:24:21.861Z,98366.41
2022-08-04T16:26:54.725Z,98368.88
2022-08-04T16:29:39.424Z,98359.72
2022-08-04T16:32:22.574Z,98357.63
2022-08-04T16:34:56.893Z,98362.41
2022-08-04T16:37:34.486Z,98358.28
2022-08-04T16:40:37.726Z,98362.19
2022-08-04T16:43:09.411Z,98364.06
2022-08-04T16:45:52.729Z,98363.44
2022-08-04T16:48:22.361Z,98364.69
2022-08-04T16:51:04.715Z,98367.84
2022-08-04T16:53:52.539Z,98361.59
2022-08-04T16:56:33.218Z,98359.91
2022-08-04T16:59:08.329Z,98361.97
2022-08-04T17:01:36.942Z,98355.53
2022-08-04T17:04:06.634Z,98359.72
2022-08-04T17:06:38.265Z,98361.59
2022-08-04T17:09:08.209Z,98370.72
2022-08-04T17:11:36.709Z,98367.63
2022-08-04T17:14:06.419Z,98365.09
2022-08-04T17:16:37.040Z,98364.88
2022-08-04T17:19:06.363Z,98369.91
2022-08-04T17:21:37.592Z,98369.06
2022-08-04T17:24:16.258Z,98359.28
2022-08-04T17:26:54.438Z,98368.84
2022-08-04T17:29:44.154Z,98367.81
2022-08-04T17:32:19.816Z,98366.34
2022-08-04T17:34:49.738Z,98356.16
2022-08-04T17:37:38.430Z,98369.69
2022-08-04T17:40:11.579Z,98364.28
2022-08-04T17:42:41.923Z,98355.94
2022-08-04T17:45:49.137Z,98356.34
2022-08-04T17:48:02.902Z,98351.34
2022-08-04T17:50:35.826Z,98361.34
2022-08-04T17:53:12.187Z,98356.75
2022-08-04T17:55:42.814Z,98361.75
2022-08-04T17:58:20.896Z,98353.22
2022-08-04T18:01:22.499Z,98362.59
2022-08-04T18:03:51.890Z,98365.06
2022-08-04T18:06:23.250Z,98365.06
2022-08-04T18:08:59.107Z,98367.16
2022-08-04T18:12:03.385Z,98370.06
2022-08-04T18:14:45.883Z,98383.78
2022-08-04T18:18:20.429Z,98383.78
2022-08-04T18:20:21.371Z,98378.19
2022-08-04T18:22:51.190Z,98381.72
2022-08-04T18:25:22.124Z,98381.72
2022-08-04T18:28:14.396Z,98388.19
2022-08-04T18:30:55.175Z,98389.19
2022-08-04T18:33:40.286Z,98391.91
2022-08-04T18:36:33.913Z,98391.47
2022-08-04T18:39:12.444Z,98392.13
2022-08-04T18:42:01.735Z,98392.94
2022-08-04T18:44:32.840Z,98394.78
2022-08-04T18:47:23.149Z,98395.84
2022-08-04T18:51:00.805Z,98395.66
2022-08-04T18:55:57.306Z,98400.25
2022-08-04T18:58:27.590Z,98398.78
2022-08-04T19:01:00.485Z,98400.25
2022-08-04T19:03:32.988Z,98408.31
2022-08-04T19:06:02.275Z,98407.47
2022-08-04T19:08:35.580Z,98404.38
2022-08-04T19:11:36.863Z,98408.47
2022-08-04T19:14:00.948Z,98401.59
2022-08-04T19:16:31.446Z,98413.25
2022-08-04T19:19:00.516Z,98407.63
2022-08-04T19:21:58.618Z,98412.41
2022-08-04T19:24:32.387Z,98408.22
2022-08-04T19:27:07.417Z,98415.31
2022-08-04T19:29:41.469Z,98401.81
2022-08-04T19:32:14.950Z,98408.63
2022-08-04T19:34:47.064Z,98409.69
2022-08-04T19:37:56.304Z,98402.41
2022-08-04T19:40:10.311Z,98407.81
2022-08-04T19:42:38.917Z,98405.50
2022-08-04T19:45:15.459Z,98397.22
2022-08-04T19:48:16.337Z,98410.09
2022-08-04T19:50:33.501Z,98405.31
2022-08-04T19:53:02.052Z,98401.16
2022-08-04T19:55:49.743Z,98406.75
2022-08-04T19:58:21.682Z,98399.69
2022-08-04T20:00:56.373Z,98410.50
2022-08-04T20:04:10.069Z,98395.50
2022-08-04T20:06:13.367Z,98402.75
2022-08-04T20:08:48.343Z,98403.81
2022-08-04T20:11:18.901Z,98409.22
2022-08-04T20:13:54.657Z,98404.63
2022-08-04T20:20:50.083Z,98408.16
2022-08-04T20:23:18.940Z,98413.78
2022-08-04T20:26:08.618Z,98406.09
2022-08-04T20:28:38.397Z,98414.19
2022-08-04T20:31:09.979Z,98408.78
2022-08-04T20:33:49.367Z,98400.69
2022-08-04T20:36:23.943Z,98400.69
2022-08-04T20:38:54.603Z,98409.81
2022-08-04T20:41:23.334Z,98399.84
2022-08-04T20:43:51.815Z,98393.59
2022-08-04T20:46:29.242Z,98401.50
2022-08-04T20:48:58.416Z,98403.56
2022-08-04T20:51:31.987Z,98405.84
2022-08-04T20:54:03.469Z,98400.03
2022-08-04T20:56:51.189Z,98399.41
2022-08-04T20:59:22.602Z,98399.63
2022-08-04T21:01:53.630Z,98397.91
2022-08-04T21:04:35.857Z,98397.31
2022-08-04T21:07:07.102Z,98394.97
2022-08-04T21:09:42.458Z,98391.91
2022-08-04T21:12:27.560Z,98395.63
2022-08-04T21:14:57.958Z,98402.06
2022-08-04T21:17:58.590Z,98400.63
2022-08-04T21:20:24.665Z,98404.41
2022-08-04T21:22:59.712Z,98407.47
2022-08-04T21:25:30.937Z,98402.25
2022-08-04T21:28:04.200Z,98393.13
2022-08-04T21:30:37.082Z,98401.88
2022-08-04T21:33:22.120Z,98402.06
2022-08-04T21:35:54.183Z,98395.63
2022-08-04T21:41:13.784Z,98386.88
2022-08-04T21:43:52.999Z,98392.28
2022-08-04T21:46:21.798Z,98394.97
2022-08-04T21:48:50.363Z,98390.63
2022-08-04T21:51:56.815Z,98386.88
2022-08-04T21:54:15.303Z,98387.28
2022-08-04T21:56:50.982Z,98384.97
2022-08-04T21:59:24.010Z,98384.78
2022-08-04T22:02:01.774Z,98389.34
2022-08-04T22:04:31.028Z,98384.97
2022-08-04T22:07:03.253Z,98375.81
2022-08-04T22:09:37.799Z,98381.44
2022-08-04T22:12:11.794Z,98379.78
2022-08-04T22:14:40.817Z,98376.88
2022-08-04T22:17:13.818Z,98373.94
2022-08-04T22:19:55.861Z,98374.56
2022-08-04T22:22:29.328Z,98375.63
2022-08-04T22:25:02.071Z,98382.03
2022-08-04T22:27:57.979Z,98377.03
2022-08-04T22:30:36.382Z,98376.38
2022-08-04T22:33:07.453Z,98370.81
2022-08-04T22:35:49.417Z,98372.69
2022-08-04T22:38:31.761Z,98377.03
2022-08-04T22:41:10.605Z,98372.22
2022-08-04T22:43:39.901Z,98374.91
2022-08-04T22:46:11.955Z,98370.97
2022-08-04T22:48:43.319Z,98370.31
2022-08-04T22:51:13.013Z,98367.63
2022-08-04T22:53:41.879Z,98370.13
2022-08-04T22:56:37.185Z,98361.38
2022-08-04T22:59:10.083Z,98362.22
2022-08-04T23:01:58.792Z,98355.16
2022-08-04T23:04:28.195Z,98349.75
2022-08-04T23:06:56.805Z,98354.28
2022-08-04T23:09:49.075Z,98352.59
2022-08-04T23:12:24.225Z,98352.59
2022-08-04T23:14:55.248Z,98348.25
2022-08-04T23:17:25.441Z,98344.72
2022-08-04T23:19:58.260Z,98342.19
2022-08-04T23:22:41.034Z,98337.63
2022-08-04T23:25:16.184Z,98328.69
2022-08-04T23:27:51.133Z,98334.09
2022-08-04T23:30:24.645Z,98321.63
2022-08-04T23:32:58.405Z,98326.19
2022-08-04T23:35:27.198Z,98325.34
2022-08-04T23:37:57.014Z,98330.75
2022-08-04T23:40:33.706Z,98322.66
2022-08-04T23:43:17.125Z,98323.69
2022-08-04T23:46:06.634Z,98323.69
2022-08-04T23:48:35.996Z,98322.00
2022-08-04T23:51:13.724Z,98323.88
2022-08-04T23:53:52.284Z,98317.66
2022-08-04T23:56:32.061Z,98317.81
2022-08-04T23:59:03.717Z,98311.59
